4O4

Mc Curtain County Regional Airport

Idabel, Oklahoma, USA
METAR K4O4 182215Z AUTO 00000KT 10SM CLR 33/21 A2990 RMK AO2
Observed Flight Rules
Jul-18 @ 22:15 UTC (15 minutes ago) Visual Flight Rules
Visibility Clouds
10 miles
  • Clear skies
Temperatures Readings
Current 33°C / 91°F
Dewpoint 21°C / 70°F
Humidity 49%
Altimeter 29.9" Hg
Pressure 1013 hPa
Elevation 144
METAR K4O4 182215Z AUTO 00000KT 10SM CLR 33/21 A2990 RMK AO2
Observed Flight Rules
Jul-18 @ 22:15 UTC
(15 minutes ago)
VFR
Clouds
  • Clear skies
Temperature Dewpoint
33°C / 91°F 21°C / 70°F
Humidity Altimeter Pressure
49% 29.9" Hg 1013 hPa